createdAt,value
2017-09-22T00:00:06.220Z,-4.15
2017-09-22T00:01:06.209Z,-4.15
2017-09-22T00:02:01.288Z,-4.15
2017-09-22T00:02:55.298Z,-4.15
2017-09-22T00:03:55.687Z,-4.15
2017-09-22T00:04:50.407Z,-4.15
2017-09-22T00:05:56.394Z,-4.15
2017-09-22T00:06:51.448Z,-4.15
2017-09-22T00:07:45.524Z,-4.15
2017-09-22T00:08:45.487Z,-4.15
2017-09-22T00:09:45.582Z,-4.15
2017-09-22T00:10:40.581Z,-4.15
2017-09-22T00:11:34.588Z,-4.15
2017-09-22T00:12:34.973Z,-4.15
2017-09-22T00:13:29.722Z,-4.15
2017-09-22T00:14:24.666Z,-4.15
2017-09-22T00:15:25.707Z,-4.15
2017-09-22T00:16:25.718Z,-4.15
2017-09-22T00:17:25.772Z,-4.15
2017-09-22T00:18:21.193Z,-4.15
2017-09-22T00:19:14.884Z,-4.15
2017-09-22T00:20:14.850Z,-4.15
2017-09-22T00:21:09.910Z,-4.15
2017-09-22T00:22:10.295Z,-4.15
2017-09-22T00:23:03.939Z,-4.15
2017-09-22T00:24:03.995Z,-4.15
2017-09-22T00:24:59.029Z,-4.15
2017-09-22T00:25:54.058Z,-4.15
2017-09-22T00:26:55.061Z,-4.15
2017-09-22T00:27:55.427Z,-4.15
2017-09-22T00:28:50.113Z,-4.15
2017-09-22T00:29:50.137Z,-4.15
2017-09-22T00:30:44.209Z,-4.15
2017-09-22T00:31:44.186Z,-4.15
2017-09-22T00:32:39.215Z,-4.15
2017-09-22T00:33:34.257Z,-4.15
2017-09-22T00:34:34.303Z,-4.15
2017-09-22T00:35:29.305Z,-4.15
2017-09-22T00:36:24.403Z,-4.15
2017-09-22T00:37:25.424Z,-4.15
2017-09-22T00:38:25.417Z,-4.15
2017-09-22T00:39:20.458Z,-4.15
2017-09-22T00:40:20.489Z,-4.15
2017-09-22T00:41:14.500Z,-4.15
2017-09-22T00:42:14.888Z,-4.15
2017-09-22T00:43:09.600Z,-4.15
2017-09-22T00:44:09.608Z,-4.15
2017-09-22T00:45:09.616Z,-4.15
2017-09-22T00:46:09.673Z,-4.15
2017-09-22T00:47:03.697Z,-4.15
2017-09-22T00:48:03.788Z,-4.15
2017-09-22T00:48:58.765Z,-4.15
2017-09-22T00:49:53.812Z,-4.15
2017-09-22T00:50:53.804Z,-4.15
2017-09-22T00:51:48.814Z,-4.15
2017-09-22T00:52:43.880Z,-4.15
2017-09-22T00:53:43.930Z,-4.15
2017-09-22T00:54:38.947Z,-4.15
2017-09-22T00:55:33.974Z,-4.15
2017-09-22T00:56:39.983Z,-4.15
2017-09-22T00:57:34.244Z,-4.15
2017-09-22T00:58:35.062Z,-4.15
2017-09-22T00:59:35.085Z,-4.15
2017-09-22T01:00:35.096Z,-4.15
2017-09-22T01:01:30.116Z,-4.15
2017-09-22T01:02:24.421Z,-4.15
2017-09-22T01:03:24.196Z,-4.15
2017-09-22T01:04:19.250Z,-4.15
2017-09-22T01:05:19.299Z,-4.15
2017-09-22T01:06:13.302Z,-4.15
2017-09-22T01:07:13.481Z,-4.15
2017-09-22T01:08:08.376Z,-4.15
2017-09-22T01:09:08.441Z,-4.15
2017-09-22T01:10:08.404Z,-4.15
2017-09-22T01:11:14.467Z,-4.15
2017-09-22T01:12:09.645Z,-4.15
2017-09-22T01:13:03.521Z,-4.15
2017-09-22T01:14:03.562Z,-4.15
2017-09-22T01:15:03.605Z,-4.15
2017-09-22T01:15:58.593Z,-4.15
2017-09-22T01:16:52.679Z,-4.15
2017-09-22T01:17:52.690Z,-4.15
2017-09-22T01:18:47.703Z,-4.15
2017-09-22T01:19:42.720Z,-4.15
2017-09-22T01:20:43.736Z,-4.15
2017-09-22T01:21:43.795Z,-4.15
2017-09-22T01:22:44.234Z,-4.15
2017-09-22T01:23:43.874Z,-4.15
2017-09-22T01:24:44.888Z,-4.15
2017-09-22T01:25:45.917Z,-4.15
2017-09-22T01:26:39.963Z,-4.15
2017-09-22T01:27:39.995Z,-4.15
2017-09-22T01:28:35.007Z,-4.15
2017-09-22T01:29:30.174Z,-4.15
2017-09-22T01:30:30.079Z,-4.16
2017-09-22T01:31:25.386Z,-4.16
2017-09-22T01:32:20.115Z,-4.16
2017-09-22T01:33:20.324Z,-4.16
2017-09-22T01:34:15.180Z,-4.16
2017-09-22T01:35:10.205Z,-4.16
2017-09-22T01:36:16.265Z,-4.16
2017-09-22T01:37:16.591Z,-4.16
2017-09-22T01:38:16.347Z,-4.16
2017-09-22T01:39:10.322Z,-4.16
2017-09-22T01:40:10.400Z,-4.16
2017-09-22T01:41:10.394Z,-4.16
2017-09-22T01:42:10.785Z,-4.16
2017-09-22T01:43:10.471Z,-4.16
2017-09-22T01:44:05.497Z,-4.15
2017-09-22T01:45:05.508Z,-4.16
2017-09-22T01:46:05.563Z,-4.16
2017-09-22T01:46:59.584Z,-4.15
2017-09-22T01:48:00.606Z,-4.15
2017-09-22T01:48:55.621Z,-4.15
2017-09-22T01:49:49.685Z,-4.15
2017-09-22T01:50:49.693Z,-4.16
2017-09-22T01:51:44.731Z,-4.16
2017-09-22T01:52:44.734Z,-4.16
2017-09-22T01:53:38.807Z,-4.16
2017-09-22T01:54:39.804Z,-4.16
2017-09-22T01:55:40.861Z,-4.16
2017-09-22T01:56:35.897Z,-4.16
2017-09-22T01:57:29.971Z,-4.16
2017-09-22T01:58:30.965Z,-4.16
2017-09-22T01:59:31.987Z,-4.16
2017-09-22T02:00:32.270Z,-4.16
2017-09-22T02:01:33.056Z,-4.16
2017-09-22T02:02:27.066Z,-4.16
2017-09-22T02:03:27.106Z,-4.16
2017-09-22T02:04:22.108Z,-4.16
2017-09-22T02:05:17.148Z,-4.16
2017-09-22T02:06:17.548Z,-4.16
2017-09-22T02:07:12.209Z,-4.16
2017-09-22T02:08:07.220Z,-4.16
2017-09-22T02:09:08.295Z,-4.16
2017-09-22T02:10:08.604Z,-4.16
2017-09-22T02:11:03.319Z,-4.16
2017-09-22T02:12:09.378Z,-4.16
2017-09-22T02:13:09.387Z,-4.16
2017-09-22T02:14:10.794Z,-4.16
2017-09-22T02:15:04.439Z,-4.16
2017-09-22T02:16:04.492Z,-4.16
2017-09-22T02:16:59.508Z,-4.16
2017-09-22T02:17:54.598Z,-4.16
2017-09-22T02:19:00.570Z,-4.16
2017-09-22T02:19:54.642Z,-4.16
2017-09-22T02:20:54.620Z,-4.16
2017-09-22T02:21:49.625Z,-4.16
2017-09-22T02:22:49.955Z,-4.16
2017-09-22T02:23:43.711Z,-4.16
2017-09-22T02:24:43.717Z,-4.16
2017-09-22T02:25:38.796Z,-4.16
2017-09-22T02:26:33.809Z,-4.16
2017-09-22T02:27:33.816Z,-4.16
2017-09-22T02:28:28.831Z,-4.16
2017-09-22T02:29:23.907Z,-4.16
2017-09-22T02:30:23.934Z,-4.16
2017-09-22T02:31:18.996Z,-4.16
2017-09-22T02:32:13.997Z,-4.16
2017-09-22T02:33:15.011Z,-4.16
2017-09-22T02:34:15.026Z,-4.16
2017-09-22T02:35:15.084Z,-4.16
2017-09-22T02:36:10.105Z,-4.16
2017-09-22T02:37:04.131Z,-4.16
2017-09-22T02:38:04.190Z,-4.16
2017-09-22T02:38:59.202Z,-4.16
2017-09-22T02:39:59.211Z,-4.16
2017-09-22T02:40:53.258Z,-4.16
2017-09-22T02:41:53.295Z,-4.16
2017-09-22T02:42:48.460Z,-4.16
2017-09-22T02:43:43.331Z,-4.16
2017-09-22T02:44:43.394Z,-4.16
2017-09-22T02:45:38.404Z,-4.16
2017-09-22T02:46:33.428Z,-4.16
2017-09-22T02:47:34.584Z,-4.16
2017-09-22T02:48:34.614Z,-4.16
2017-09-22T02:49:34.553Z,-4.16
2017-09-22T02:50:29.584Z,-4.16
2017-09-22T02:51:23.609Z,-4.16
2017-09-22T02:52:23.973Z,-4.16
2017-09-22T02:53:18.683Z,-4.16
2017-09-22T02:54:18.864Z,-4.16
2017-09-22T02:55:12.719Z,-4.16
2017-09-22T02:56:12.767Z,-4.16
2017-09-22T02:57:07.787Z,-4.16
2017-09-22T02:58:02.802Z,-4.16
2017-09-22T02:59:02.821Z,-4.16
2017-09-22T02:59:57.891Z,-4.16
2017-09-22T03:00:57.899Z,-4.16
2017-09-22T03:01:57.907Z,-4.16
2017-09-22T03:03:03.968Z,-4.16
2017-09-22T03:03:58.988Z,-4.16
2017-09-22T03:05:00.026Z,-4.16
2017-09-22T03:06:01.013Z,-4.16
2017-09-22T03:07:01.074Z,-4.16
2017-09-22T03:08:01.094Z,-4.16
2017-09-22T03:08:56.102Z,-4.16
2017-09-22T03:09:50.174Z,-4.16
2017-09-22T03:10:50.203Z,-4.16
2017-09-22T03:11:45.394Z,-4.16
2017-09-22T03:12:40.264Z,-4.16
2017-09-22T03:13:40.288Z,-4.16
2017-09-22T03:14:35.316Z,-4.16
2017-09-22T03:15:30.329Z,-4.16
2017-09-22T03:16:30.395Z,-4.16
2017-09-22T03:17:25.403Z,-4.16
2017-09-22T03:18:20.423Z,-4.16
2017-09-22T03:19:26.425Z,-4.16
2017-09-22T03:20:20.492Z,-4.16
2017-09-22T03:21:20.516Z,-4.16
2017-09-22T03:22:15.963Z,-4.16
2017-09-22T03:23:15.584Z,-4.16
2017-09-22T03:24:09.603Z,-4.16
2017-09-22T03:25:09.618Z,-4.16
2017-09-22T03:26:04.687Z,-4.16
2017-09-22T03:26:59.704Z,-4.16
2017-09-22T03:27:59.693Z,-4.16
2017-09-22T03:28:54.783Z,-4.16
2017-09-22T03:29:49.813Z,-4.16
2017-09-22T03:30:49.824Z,-4.16
2017-09-22T03:31:44.834Z,-4.16
2017-09-22T03:32:39.890Z,-4.16
2017-09-22T03:33:40.913Z,-4.16
2017-09-22T03:34:40.971Z,-4.16
2017-09-22T03:35:40.976Z,-4.16
2017-09-22T03:36:36.001Z,-4.16
2017-09-22T03:37:30.017Z,-4.16
2017-09-22T03:38:30.084Z,-4.16
2017-09-22T03:39:25.303Z,-4.16
2017-09-22T03:40:25.131Z,-4.16
2017-09-22T03:41:19.172Z,-4.16
2017-09-22T03:42:19.163Z,-4.16
2017-09-22T03:43:14.393Z,-4.16
2017-09-22T03:44:09.268Z,-4.16
2017-09-22T03:45:09.294Z,-4.16
2017-09-22T03:46:04.305Z,-4.16
2017-09-22T03:46:59.332Z,-4.16
2017-09-22T03:48:00.547Z,-4.16
2017-09-22T03:49:00.403Z,-4.16
2017-09-22T03:50:00.407Z,-4.16
2017-09-22T03:50:55.490Z,-4.16
2017-09-22T03:51:49.492Z,-4.16
2017-09-22T03:52:49.505Z,-4.16
2017-09-22T03:53:44.576Z,-4.16
2017-09-22T03:54:44.589Z,-4.16
2017-09-22T03:55:38.607Z,-4.16
2017-09-22T03:56:38.724Z,-4.16
2017-09-22T03:57:33.658Z,-4.16
2017-09-22T03:58:28.709Z,-4.16
2017-09-22T03:59:28.722Z,-4.16
2017-09-22T04:00:23.730Z,-4.16
2017-09-22T04:01:23.798Z,-4.16
2017-09-22T04:02:23.861Z,-4.16
2017-09-22T04:03:23.871Z,-4.16
2017-09-22T04:04:17.892Z,-4.16
2017-09-22T04:05:17.899Z,-4.16
2017-09-22T04:06:12.935Z,-4.16
2017-09-22T04:07:07.991Z,-4.16
2017-09-22T04:08:09.005Z,-4.16
2017-09-22T04:09:09.016Z,-4.16
2017-09-22T04:10:09.069Z,-4.16
2017-09-22T04:11:04.091Z,-4.16
2017-09-22T04:11:58.114Z,-4.16
2017-09-22T04:12:58.522Z,-4.16
2017-09-22T04:13:53.223Z,-4.16
2017-09-22T04:14:53.207Z,-4.16
2017-09-22T04:15:47.236Z,-4.16
2017-09-22T04:16:47.245Z,-4.16
2017-09-22T04:17:42.509Z,-4.16
2017-09-22T04:18:37.325Z,-4.16
2017-09-22T04:19:37.393Z,-4.16
2017-09-22T04:20:32.389Z,-4.16
2017-09-22T04:21:27.415Z,-4.16
2017-09-22T04:22:28.468Z,-4.16
2017-09-22T04:23:28.496Z,-4.16
2017-09-22T04:24:28.504Z,-4.16
2017-09-22T04:25:23.569Z,-4.16
2017-09-22T04:26:17.593Z,-4.16
2017-09-22T04:27:17.599Z,-4.16
2017-09-22T04:28:12.611Z,-4.16
2017-09-22T04:29:12.650Z,-4.16
2017-09-22T04:30:06.714Z,-4.16
2017-09-22T04:31:06.786Z,-4.16
2017-09-22T04:32:01.721Z,-4.16
2017-09-22T04:32:56.889Z,-4.16
2017-09-22T04:33:56.805Z,-4.16
2017-09-22T04:34:51.886Z,-4.16
2017-09-22T04:35:46.897Z,-4.16
2017-09-22T04:36:52.907Z,-4.16
2017-09-22T04:37:46.918Z,-4.16
2017-09-22T04:38:46.974Z,-4.16
2017-09-22T04:39:41.994Z,-4.16
2017-09-22T04:40:42.013Z,-4.16
2017-09-22T04:41:36.066Z,-4.16
2017-09-22T04:42:36.108Z,-4.16
2017-09-22T04:43:31.110Z,-4.16
2017-09-22T04:44:31.123Z,-4.16
2017-09-22T04:45:31.178Z,-4.16
2017-09-22T04:46:31.199Z,-4.16
2017-09-22T04:47:25.210Z,-4.16
2017-09-22T04:48:25.300Z,-4.16
2017-09-22T04:49:20.301Z,-4.16
2017-09-22T04:50:15.683Z,-4.16
2017-09-22T04:51:15.370Z,-4.16
2017-09-22T04:52:10.391Z,-4.16
2017-09-22T04:53:10.407Z,-4.16
2017-09-22T04:54:10.430Z,-4.16
2017-09-22T04:55:10.796Z,-4.16
2017-09-22T04:56:04.492Z,-4.16
2017-09-22T04:57:04.514Z,-4.16
2017-09-22T04:57:59.578Z,-4.16
2017-09-22T04:58:54.593Z,-4.16
2017-09-22T04:59:54.615Z,-4.16
2017-09-22T05:00:49.648Z,-4.16
2017-09-22T05:01:44.664Z,-4.16
2017-09-22T05:02:50.983Z,-4.16
2017-09-22T05:03:44.729Z,-4.16
2017-09-22T05:04:44.730Z,-4.16
2017-09-22T05:05:39.898Z,-4.16
2017-09-22T05:06:39.824Z,-4.16
2017-09-22T05:07:39.819Z,-4.16
2017-09-22T05:08:39.893Z,-4.16
2017-09-22T05:09:39.911Z,-4.16
2017-09-22T05:10:39.916Z,-4.16
2017-09-22T05:11:39.994Z,-4.16
2017-09-22T05:12:40.001Z,-4.16
2017-09-22T05:13:40.022Z,-4.16
2017-09-22T05:14:40.028Z,-4.16
2017-09-22T05:15:40.101Z,-4.16
2017-09-22T05:16:40.105Z,-4.16
2017-09-22T05:17:40.129Z,-4.16
2017-09-22T05:18:40.137Z,-4.16
2017-09-22T05:19:40.170Z,-4.16
2017-09-22T05:20:40.219Z,-4.16
2017-09-22T05:21:40.388Z,-4.16
2017-09-22T05:22:40.364Z,-4.16
2017-09-22T05:23:40.317Z,-4.16
2017-09-22T05:24:40.317Z,-4.16
2017-09-22T05:25:40.376Z,-4.16
2017-09-22T05:26:40.401Z,-4.16
2017-09-22T05:27:40.407Z,-4.16
2017-09-22T05:28:40.566Z,-4.16
2017-09-22T05:29:40.499Z,-4.16
2017-09-22T05:30:40.502Z,-4.16
2017-09-22T05:31:40.519Z,-4.16
2017-09-22T05:32:40.574Z,-4.16
2017-09-22T05:33:40.611Z,-4.16
2017-09-22T05:34:40.615Z,-4.16
2017-09-22T05:35:40.687Z,-4.16
2017-09-22T05:36:40.693Z,-4.16
2017-09-22T05:37:40.706Z,-4.16
2017-09-22T05:38:40.722Z,-4.16
2017-09-22T05:39:40.747Z,-4.16
2017-09-22T05:40:46.862Z,-4.16
2017-09-22T05:41:41.809Z,-4.16
2017-09-22T05:42:35.830Z,-4.16
2017-09-22T05:43:35.908Z,-4.16
2017-09-22T05:44:30.905Z,-4.16
2017-09-22T05:45:30.971Z,-4.16
2017-09-22T05:46:32.259Z,-4.16
2017-09-22T05:47:32.002Z,-4.16
2017-09-22T05:48:32.272Z,-4.15
2017-09-22T05:49:32.086Z,-4.15
2017-09-22T05:50:32.106Z,-4.15
2017-09-22T05:51:32.114Z,-4.15
2017-09-22T05:52:32.155Z,-4.15
2017-09-22T05:53:32.173Z,-4.14
2017-09-22T05:54:32.208Z,-4.14
2017-09-22T05:55:32.218Z,-4.14
2017-09-22T05:56:38.230Z,-4.14
2017-09-22T05:57:38.433Z,-4.14
2017-09-22T05:58:39.311Z,-4.14
2017-09-22T05:59:40.367Z,-4.14
2017-09-22T06:00:40.391Z,-4.13
2017-09-22T06:01:35.416Z,-4.14
2017-09-22T06:02:36.420Z,-4.14
2017-09-22T06:03:36.519Z,-4.14
2017-09-22T06:04:31.504Z,-4.13
2017-09-22T06:05:26.568Z,-4.14
2017-09-22T06:06:26.592Z,-4.14
2017-09-22T06:07:21.813Z,-4.14
2017-09-22T06:08:16.627Z,-4.14
2017-09-22T06:09:10.703Z,-4.14
2017-09-22T06:10:16.695Z,-4.14
2017-09-22T06:11:10.725Z,-4.14
2017-09-22T06:12:11.809Z,-4.14
2017-09-22T06:13:06.810Z,-4.14
2017-09-22T06:14:06.823Z,-4.14
2017-09-22T06:15:06.920Z,-4.14
2017-09-22T06:16:06.901Z,-4.14
2017-09-22T06:17:12.929Z,-4.14
2017-09-22T06:18:07.984Z,-4.14
2017-09-22T06:19:08.024Z,-4.13
2017-09-22T06:20:08.063Z,-4.13
2017-09-22T06:21:02.085Z,-4.13
2017-09-22T06:22:02.096Z,-4.13
2017-09-22T06:22:57.129Z,-4.12
2017-09-22T06:23:52.164Z,-4.13
2017-09-22T06:24:46.194Z,-4.12
2017-09-22T06:25:46.504Z,-4.12
2017-09-22T06:26:41.585Z,-4.12
2017-09-22T06:27:41.317Z,-4.12
2017-09-22T06:28:41.389Z,-4.12
2017-09-22T06:29:41.389Z,-4.12
2017-09-22T06:30:35.411Z,-4.12
2017-09-22T06:31:35.497Z,-4.12
2017-09-22T06:32:30.497Z,-4.12
2017-09-22T06:33:25.510Z,-4.12
2017-09-22T06:34:19.589Z,-4.12
2017-09-22T06:35:19.599Z,-4.12
2017-09-22T06:36:14.611Z,-4.12
2017-09-22T06:37:09.686Z,-4.12
2017-09-22T06:38:09.792Z,-4.11
2017-09-22T06:39:04.718Z,-4.11
2017-09-22T06:39:59.786Z,-4.11
2017-09-22T06:40:53.805Z,-4.11
2017-09-22T06:41:54.885Z,-4.11
2017-09-22T06:42:49.949Z,-4.11
2017-09-22T06:43:49.913Z,-4.11
2017-09-22T06:44:50.152Z,-4.11
2017-09-22T06:45:50.004Z,-4.11
2017-09-22T06:46:50.096Z,-4.11
2017-09-22T06:47:50.162Z,-4.10
2017-09-22T06:48:50.124Z,-4.10
2017-09-22T06:49:50.121Z,-4.10
2017-09-22T06:50:50.177Z,-4.10
2017-09-22T06:51:50.222Z,-4.10
2017-09-22T06:52:56.602Z,-4.10
2017-09-22T06:53:51.368Z,-4.10
2017-09-22T06:54:51.595Z,-4.10
2017-09-22T06:55:51.386Z,-4.09
2017-09-22T06:56:45.404Z,-4.09
2017-09-22T06:57:45.441Z,-4.09
2017-09-22T06:58:40.503Z,-4.09
2017-09-22T06:59:35.592Z,-4.10
2017-09-22T07:00:29.726Z,-4.10
2017-09-22T07:01:29.759Z,-4.10
2017-09-22T07:02:24.743Z,-4.11
2017-09-22T07:03:24.833Z,-4.11
2017-09-22T07:04:24.906Z,-4.11
2017-09-22T07:05:25.012Z,-4.11
2017-09-22T07:06:19.057Z,-4.12
2017-09-22T07:07:19.215Z,-4.12
2017-09-22T07:08:13.910Z,-4.12
2017-09-22T07:09:09.241Z,-4.12
2017-09-22T07:10:02.938Z,-4.12
2017-09-22T07:11:03.038Z,-4.12
2017-09-22T07:11:58.033Z,-4.12
2017-09-22T07:12:53.199Z,-4.12
2017-09-22T07:13:53.114Z,-4.13
2017-09-22T07:14:48.157Z,-4.13
2017-09-22T07:15:43.248Z,-4.12
2017-09-22T07:16:37.230Z,-4.12
2017-09-22T07:17:38.296Z,-4.13
2017-09-22T07:18:33.318Z,-4.13
2017-09-22T07:19:33.375Z,-4.13
2017-09-22T07:20:33.408Z,-4.13
2017-09-22T07:21:33.440Z,-4.12
2017-09-22T07:22:33.520Z,-4.12
2017-09-22T07:23:33.513Z,-4.12
2017-09-22T07:24:33.705Z,-4.11
2017-09-22T07:25:33.702Z,-4.11
2017-09-22T07:26:33.971Z,-4.10
2017-09-22T07:27:33.842Z,-4.10
2017-09-22T07:28:33.904Z,-4.09
2017-09-22T07:29:34.010Z,-4.08
2017-09-22T07:30:40.152Z,-4.08
2017-09-22T07:31:34.831Z,-4.07
2017-09-22T07:32:28.899Z,-4.07
2017-09-22T07:33:28.916Z,-4.06
2017-09-22T07:34:24.013Z,-4.06
2017-09-22T07:35:19.012Z,-4.06
2017-09-22T07:36:19.031Z,-4.06
2017-09-22T07:37:14.131Z,-4.06
2017-09-22T07:38:09.509Z,-4.06
2017-09-22T07:39:03.197Z,-4.06
2017-09-22T07:40:03.284Z,-4.07
2017-09-22T07:40:58.239Z,-4.07
2017-09-22T07:41:53.659Z,-4.06
2017-09-22T07:42:53.618Z,-0.40
2017-09-22T07:43:48.751Z,-2.23
2017-09-22T07:44:42.481Z,8.57
2017-09-22T07:45:36.587Z,8.23
2017-09-22T07:46:25.612Z,11.47
2017-09-22T07:47:13.631Z,16.61
2017-09-22T07:48:07.701Z,4.85
2017-09-22T07:49:02.784Z,13.24
2017-09-22T07:49:57.915Z,6.25
2017-09-22T07:50:52.011Z,14.89
2017-09-22T07:51:46.153Z,3.44
2017-09-22T07:52:34.900Z,-4.06
2017-09-22T07:53:23.271Z,6.48
2017-09-22T07:54:12.031Z,19.65
2017-09-22T07:55:00.054Z,14.41
2017-09-22T07:56:00.465Z,7.20
2017-09-22T07:56:54.169Z,16.60
2017-09-22T07:57:43.188Z,27.52
2017-09-22T07:58:37.238Z,35.53
2017-09-22T07:59:25.314Z,34.10
2017-09-22T08:00:13.337Z,35.88
2017-09-22T08:01:07.418Z,37.91
2017-09-22T08:02:01.445Z,34.50
2017-09-22T08:02:55.657Z,40.76
2017-09-22T08:03:55.535Z,42.03
2017-09-22T08:04:44.742Z,36.81
2017-09-22T08:05:38.762Z,35.39
2017-09-22T08:06:27.837Z,39.96
2017-09-22T08:07:15.967Z,35.81
2017-09-22T08:08:10.817Z,38.33
2017-09-22T08:08:59.888Z,39.02
2017-09-22T08:09:53.925Z,42.10
2017-09-22T08:10:53.978Z,38.91
2017-09-22T08:11:48.401Z,43.97
2017-09-22T08:12:37.088Z,44.51
2017-09-22T08:13:32.186Z,42.47
2017-09-22T08:14:27.216Z,39.08
2017-09-22T08:15:22.616Z,40.90
2017-09-22T08:16:16.581Z,41.57
2017-09-22T08:17:16.560Z,28.69
2017-09-22T08:18:04.624Z,33.91
2017-09-22T08:18:53.669Z,39.08
2017-09-22T08:19:47.742Z,41.62
2017-09-22T08:20:42.713Z,38.52
2017-09-22T08:21:42.829Z,39.60
2017-09-22T08:22:30.888Z,39.78
2017-09-22T08:23:30.928Z,44.22
2017-09-22T08:24:20.034Z,43.15
2017-09-22T08:25:14.004Z,34.59
2017-09-22T08:26:09.174Z,23.11
2017-09-22T08:27:04.225Z,38.97
2017-09-22T08:27:58.266Z,43.30
2017-09-22T08:28:46.145Z,44.69
2017-09-22T08:29:40.039Z,41.02
2017-09-22T08:30:40.187Z,43.92
2017-09-22T08:31:35.139Z,42.96
2017-09-22T08:32:29.225Z,39.88
2017-09-22T08:33:24.243Z,37.20
2017-09-22T08:34:19.318Z,42.53
2017-09-22T08:35:14.340Z,42.43
2017-09-22T08:36:09.465Z,44.00
2017-09-22T08:36:58.450Z,43.68
2017-09-22T08:37:47.516Z,37.74
2017-09-22T08:38:41.588Z,41.06
2017-09-22T08:39:36.628Z,40.22
2017-09-22T08:40:36.676Z,40.57
2017-09-22T08:41:30.729Z,40.32
2017-09-22T08:42:25.179Z,39.51
2017-09-22T08:43:18.827Z,36.98
2017-09-22T08:44:19.927Z,37.86
2017-09-22T08:45:19.928Z,39.81
2017-09-22T08:46:19.993Z,26.82
2017-09-22T08:47:20.398Z,43.27
2017-09-22T08:48:15.090Z,43.43
2017-09-22T08:49:03.131Z,45.28
2017-09-22T08:50:03.198Z,43.17
2017-09-22T08:50:51.226Z,46.88
2017-09-22T08:51:40.417Z,44.38
2017-09-22T08:52:34.330Z,39.59
2017-09-22T08:53:28.403Z,44.17
2017-09-22T08:54:22.442Z,44.15
2017-09-22T08:55:16.533Z,41.43
2017-09-22T08:56:10.544Z,46.60
2017-09-22T08:56:58.687Z,47.27
2017-09-22T08:57:47.731Z,45.70
2017-09-22T08:58:47.686Z,46.75
2017-09-22T08:59:36.999Z,43.47
2017-09-22T09:00:31.181Z,45.39
2017-09-22T09:01:26.167Z,40.21
2017-09-22T09:02:20.320Z,38.49
2017-09-22T09:03:14.950Z,38.91
2017-09-22T09:04:09.050Z,36.21
2017-09-22T09:05:09.360Z,42.09
2017-09-22T09:06:04.142Z,44.49
2017-09-22T09:06:59.228Z,46.01
2017-09-22T09:07:59.235Z,45.01
2017-09-22T09:08:53.508Z,44.07
2017-09-22T09:09:42.620Z,44.07
2017-09-22T09:10:36.718Z,42.80
2017-09-22T09:11:30.805Z,47.54
2017-09-22T09:12:25.863Z,42.96
2017-09-22T09:13:19.863Z,46.08
2017-09-22T09:14:08.995Z,46.79
2017-09-22T09:15:03.903Z,47.03
2017-09-22T09:15:58.062Z,45.65
2017-09-22T09:16:53.112Z,40.16
2017-09-22T09:17:47.124Z,41.62
2017-09-22T09:18:35.149Z,45.81
2017-09-22T09:19:36.216Z,44.20
2017-09-22T09:20:30.235Z,45.09
2017-09-22T09:21:18.291Z,39.99
2017-09-22T09:22:12.407Z,38.98
2017-09-22T09:23:06.467Z,46.36
2017-09-22T09:24:00.547Z,44.07
2017-09-22T09:24:55.237Z,47.90
2017-09-22T09:25:49.317Z,47.18
2017-09-22T09:26:43.611Z,46.81
2017-09-22T09:27:37.749Z,48.06
2017-09-22T09:28:31.492Z,45.56
2017-09-22T09:29:20.518Z,41.90
2017-09-22T09:30:14.694Z,45.73
2017-09-22T09:31:03.617Z,47.48
2017-09-22T09:31:52.692Z,47.54
2017-09-22T09:32:52.796Z,49.11
2017-09-22T09:33:42.104Z,46.61
2017-09-22T09:34:36.111Z,47.63
2017-09-22T09:35:36.156Z,48.13
2017-09-22T09:36:30.146Z,48.69
2017-09-22T09:37:24.549Z,45.93
2017-09-22T09:38:25.295Z,45.87
2017-09-22T09:39:14.410Z,48.79
2017-09-22T09:40:03.471Z,48.37
2017-09-22T09:40:52.522Z,46.90
2017-09-22T09:41:41.594Z,47.61
2017-09-22T09:42:30.616Z,48.44
2017-09-22T09:43:19.447Z,48.54
2017-09-22T09:44:19.674Z,47.95
2017-09-22T09:45:13.757Z,45.82
2017-09-22T09:46:07.950Z,41.72
2017-09-22T09:47:08.770Z,42.92
2017-09-22T09:48:08.834Z,43.92
2017-09-22T09:49:03.798Z,44.00
2017-09-22T09:49:57.799Z,44.94
2017-09-22T09:50:53.116Z,42.17
2017-09-22T09:51:47.078Z,42.50
2017-09-22T09:52:46.911Z,39.55
2017-09-22T09:53:36.084Z,41.09
2017-09-22T09:54:30.288Z,41.18
2017-09-22T09:55:30.288Z,41.62
2017-09-22T09:56:19.290Z,42.49
2017-09-22T09:57:13.461Z,41.12
2017-09-22T09:58:08.561Z,46.57
2017-09-22T09:59:03.622Z,45.93
2017-09-22T09:59:57.440Z,46.37
2017-09-22T10:00:51.742Z,47.91
2017-09-22T10:01:40.676Z,48.23
2017-09-22T10:02:35.754Z,47.42
2017-09-22T10:03:30.590Z,48.42
2017-09-22T10:04:24.893Z,47.57
2017-09-22T10:05:24.690Z,48.64
2017-09-22T10:06:19.042Z,49.24
2017-09-22T10:07:19.071Z,48.68
2017-09-22T10:08:08.091Z,49.18
2017-09-22T10:09:02.234Z,49.25
2017-09-22T10:09:57.200Z,48.65
2017-09-22T10:10:57.251Z,49.22
2017-09-22T10:11:51.369Z,49.04
2017-09-22T10:12:40.479Z,49.33
2017-09-22T10:13:35.376Z,49.05
2017-09-22T10:14:29.282Z,49.44
2017-09-22T10:15:18.573Z,48.06
2017-09-22T10:16:12.582Z,49.70
2017-09-22T10:17:01.737Z,48.83
2017-09-22T10:17:50.726Z,49.05
2017-09-22T10:18:44.746Z,49.25
2017-09-22T10:19:38.758Z,49.27
2017-09-22T10:20:27.960Z,49.16
2017-09-22T10:21:17.017Z,49.33
2017-09-22T10:22:06.138Z,48.89
2017-09-22T10:23:00.123Z,49.12
2017-09-22T10:23:55.105Z,49.22
2017-09-22T10:24:50.258Z,49.44
2017-09-22T10:25:39.198Z,49.86
2017-09-22T10:26:28.281Z,49.47
2017-09-22T10:27:17.425Z,49.66
2017-09-22T10:28:11.471Z,48.44
2017-09-22T10:29:06.463Z,49.77
2017-09-22T10:30:01.487Z,49.53
2017-09-22T10:30:49.550Z,49.14
2017-09-22T10:31:43.718Z,48.41
2017-09-22T10:32:37.749Z,49.13
2017-09-22T10:33:31.737Z,49.29
2017-09-22T10:34:31.825Z,48.79
2017-09-22T10:35:20.811Z,47.87
2017-09-22T10:36:08.971Z,48.42
2017-09-22T10:37:03.026Z,48.87
2017-09-22T10:37:57.182Z,48.92
2017-09-22T10:38:51.116Z,48.51
2017-09-22T10:39:46.196Z,48.27
2017-09-22T10:40:40.281Z,49.36
2017-09-22T10:41:28.230Z,49.36
2017-09-22T10:42:17.315Z,49.72
2017-09-22T10:43:12.420Z,48.54
2017-09-22T10:44:01.493Z,47.93
2017-09-22T10:44:56.547Z,49.69
2017-09-22T10:45:45.563Z,50.10
2017-09-22T10:46:39.671Z,50.39
2017-09-22T10:47:34.712Z,49.68
2017-09-22T10:48:34.764Z,49.99
2017-09-22T10:49:23.807Z,49.25
2017-09-22T10:50:17.893Z,50.18
2017-09-22T10:51:05.939Z,49.82
2017-09-22T10:51:53.994Z,49.08
2017-09-22T10:52:48.014Z,47.39
2017-09-22T10:53:37.220Z,48.22
2017-09-22T10:54:32.152Z,48.28
2017-09-22T10:55:21.220Z,49.31
2017-09-22T10:56:15.303Z,48.75
2017-09-22T10:57:21.333Z,48.02
2017-09-22T10:58:15.435Z,48.55
2017-09-22T10:59:09.485Z,49.04
2017-09-22T11:00:03.524Z,48.49
2017-09-22T11:00:57.534Z,49.84
2017-09-22T11:01:51.641Z,48.69
2017-09-22T11:02:57.652Z,49.68
2017-09-22T11:03:46.744Z,49.06
2017-09-22T11:04:35.848Z,49.10
2017-09-22T11:05:29.829Z,48.63
2017-09-22T11:06:23.940Z,49.85
2017-09-22T11:07:17.942Z,50.28
2017-09-22T11:08:12.032Z,50.52
2017-09-22T11:09:00.075Z,50.16
2017-09-22T11:09:55.190Z,49.49
2017-09-22T11:10:55.211Z,50.67
2017-09-22T11:11:50.278Z,50.78
2017-09-22T11:12:50.073Z,49.42
2017-09-22T11:13:39.279Z,50.32
2017-09-22T11:14:33.268Z,49.97
2017-09-22T11:15:22.760Z,50.74
2017-09-22T11:16:17.543Z,51.30
2017-09-22T11:17:12.562Z,49.78
2017-09-22T11:18:01.656Z,49.81
2017-09-22T11:19:01.702Z,50.23
2017-09-22T11:19:56.749Z,49.82
2017-09-22T11:20:44.832Z,49.93
2017-09-22T11:21:38.871Z,50.06
2017-09-22T11:22:32.937Z,49.93
2017-09-22T11:23:26.985Z,50.50
2017-09-22T11:24:21.041Z,50.32
2017-09-22T11:25:15.113Z,51.27
2017-09-22T11:26:09.208Z,50.80
2017-09-22T11:27:04.216Z,50.82
2017-09-22T11:27:59.257Z,47.18
2017-09-22T11:28:54.354Z,47.07
2017-09-22T11:29:43.353Z,42.26
2017-09-22T11:30:38.441Z,48.71
2017-09-22T11:31:26.450Z,47.49
2017-09-22T11:32:20.549Z,48.24
2017-09-22T11:33:14.480Z,43.95
2017-09-22T11:34:09.317Z,47.31
2017-09-22T11:35:09.704Z,44.82
2017-09-22T11:36:04.597Z,44.03
2017-09-22T11:36:59.571Z,46.47
2017-09-22T11:37:53.751Z,44.35
2017-09-22T11:38:47.629Z,40.36
2017-09-22T11:39:47.947Z,37.91
2017-09-22T11:40:41.665Z,35.71
2017-09-22T11:41:41.991Z,41.11
2017-09-22T11:42:37.082Z,37.72
2017-09-22T11:43:31.160Z,42.16
2017-09-22T11:44:31.214Z,41.85
2017-09-22T11:45:26.267Z,35.80
2017-09-22T11:46:21.297Z,31.31
2017-09-22T11:47:09.398Z,35.49
2017-09-22T11:48:09.411Z,27.55
2017-09-22T11:49:03.479Z,19.18
2017-09-22T11:49:58.484Z,15.40
2017-09-22T11:50:47.569Z,15.25
2017-09-22T11:51:36.614Z,22.69
2017-09-22T11:52:30.641Z,21.67
2017-09-22T11:53:30.727Z,22.31
2017-09-22T11:54:24.758Z,30.67
2017-09-22T11:55:24.782Z,20.88
2017-09-22T11:56:13.882Z,26.95
2017-09-22T11:57:07.922Z,18.64
2017-09-22T11:58:01.975Z,30.26
2017-09-22T11:59:02.093Z,25.88
2017-09-22T11:59:56.058Z,29.83
2017-09-22T12:00:50.078Z,26.69
2017-09-22T12:01:38.140Z,23.93
2017-09-22T12:02:32.253Z,26.72
2017-09-22T12:03:26.281Z,29.89
2017-09-22T12:04:15.294Z,28.90
2017-09-22T12:05:10.283Z,26.64